Kolby — WDE7337 — position and weather

sailwx.info

Track history (hours):
 
Tides and Currents Weather Stations Pressure Air Temp Water Temp Dewpoint Dewpoint Depression Visibility Wind Speed Wind Dir Waves Ship Positions

Kolby

Owner: K&B Marine, Larose, LA. More information available from US FCC via Universal Licensing System and Coast Guard Vessel Documentation Center.

Last reported at 2018-Jul-20 00:07 UTC. Time now 2018-Jul-22 06:35 UTC.
Position N 29°34' W 090°43'.

Length 13 m.

Type: Tug. MMSI: 367392030.

Date/timePositionNaut miles runAvg speedWind from/ knotsBaromVisibWave heightAir tempDewpointWater temp
2018-Jul-20 00:07N 29°34' W 090°43'0 0.0
2018-Jul-20 00:01N 29°34' W 090°43'1 1.1
2018-Jul-19 23:30N 29°34' W 090°42'1 1.9
2018-Jul-19 23:01N 29°34' W 090°43'1 2.2
2018-Jul-19 22:30N 29°35' W 090°43'2 3.4
2018-Jul-19 22:00N 29°36' W 090°41'3 4.8
2018-Jul-19 21:23N 29°35' W 090°38'  
2018-Jul-17 11:54N 29°34' W 090°33'0 0.0
2018-Jul-17 09:12N 29°34' W 090°33'4 0.2
2018-Jul-16 10:29N 29°35' W 090°37'3 5.7
2018-Jul-16 10:00N 29°36' W 090°40'2 4.2
2018-Jul-16 09:29N 29°36' W 090°43'2 4.4
2018-Jul-16 09:00N 29°34' W 090°43'0 0.7
2018-Jul-16 08:30N 29°34' W 090°43'  
2018-Jul-14 01:31N 29°34' W 090°43'0 0.6
2018-Jul-14 01:30N 29°34' W 090°43'0 0.1
2018-Jul-14 01:00N 29°34' W 090°43'0 0.7
2018-Jul-14 00:27N 29°34' W 090°43'2 4.6
2018-Jul-14 00:00N 29°36' W 090°43'1 1.5
2018-Jul-13 23:30N 29°37' W 090°42'0 0.2
2018-Jul-13 23:00N 29°37' W 090°42'2 4.3
2018-Jul-13 22:29N 29°36' W 090°40'2 4.8
2018-Jul-13 22:00N 29°35' W 090°37'4 0.2
2018-Jul-12 20:47N 29°34' W 090°33'0 0.0
2018-Jul-12 20:16N 29°34' W 090°33'0 0.1
2018-Jul-12 20:00N 29°34' W 090°33'0 0.0
2018-Jul-12 19:29N 29°34' W 090°33'0 0.1
2018-Jul-12 18:57N 29°34' W 090°33'0 0.0
2018-Jul-12 16:56N 29°34' W 090°33'0 0.0
2018-Jul-12 16:28N 29°34' W 090°33'0 0.0
2018-Jul-12 15:59N 29°34' W 090°33'0 0.0
2018-Jul-12 15:30N 29°34' W 090°33'0 0.0
2018-Jul-12 15:00N 29°34' W 090°33'0 0.0
2018-Jul-12 14:29N 29°34' W 090°33'0 0.0
2018-Jul-12 14:00N 29°34' W 090°33'0 0.0
2018-Jul-12 13:30N 29°34' W 090°33'0 0.0
2018-Jul-12 13:00N 29°34' W 090°33'0 0.0
2018-Jul-12 12:29N 29°34' W 090°33'0 0.0
2018-Jul-12 12:00N 29°34' W 090°33'1 1.1
2018-Jul-12 11:16N 29°35' W 090°32'0 0.0
2018-Jul-12 08:44N 29°35' W 090°32'0 0.0
2018-Jul-12 08:24N 29°35' W 090°32'0 0.0
2018-Jul-12 07:55N 29°35' W 090°32'0 0.0
2018-Jul-12 07:30N 29°35' W 090°32'0 0.0
2018-Jul-12 07:00N 29°35' W 090°32'0 0.0
2018-Jul-12 06:30N 29°35' W 090°32'0 0.0
2018-Jul-12 06:00N 29°35' W 090°32'0 0.0
2018-Jul-12 05:30N 29°35' W 090°32'0 0.0
2018-Jul-12 04:36N 29°35' W 090°32'0 0.0
2018-Jul-12 04:28N 29°35' W 090°32'0 0.0
2018-Jul-12 04:00N 29°35' W 090°32'0 0.0
2018-Jul-12 03:09N 29°35' W 090°32'0 0.0
2018-Jul-12 02:44N 29°35' W 090°32'0 0.0
2018-Jul-12 02:22N 29°35' W 090°32'0 0.0
2018-Jul-12 01:48N 29°35' W 090°32'0 0.0
2018-Jul-11 23:01N 29°35' W 090°32'0 0.0
2018-Jul-11 23:00N 29°35' W 090°32'1 1.5
2018-Jul-11 22:30N 29°34' W 090°33'0 0.0
2018-Jul-11 22:00N 29°34' W 090°33'0 0.0
2018-Jul-11 21:30N 29°34' W 090°33'0 0.0
2018-Jul-11 21:00N 29°34' W 090°33'0 0.0
2018-Jul-11 20:30N 29°34' W 090°33'0 0.0
2018-Jul-11 19:59N 29°34' W 090°33'0 0.0
2018-Jul-11 19:30N 29°34' W 090°33'0 0.0
2018-Jul-11 19:00N 29°34' W 090°33'0 0.0
2018-Jul-11 18:30N 29°34' W 090°33'0 0.0
2018-Jul-11 18:00N 29°34' W 090°33'0 0.0
2018-Jul-11 17:28N 29°34' W 090°33'0 0.8
2018-Jul-11 17:00N 29°34' W 090°33'3 5.7
2018-Jul-11 16:30N 29°35' W 090°36'3 5.7
2018-Jul-11 16:00N 29°36' W 090°39'3 5.9
2018-Jul-11 15:30N 29°37' W 090°42'3 4.8
2018-Jul-11 14:59N 29°34' W 090°43'1 1.7
2018-Jul-11 14:30N 29°34' W 090°42'0 0.8
2018-Jul-11 14:00N 29°34' W 090°43'0 0.0
2018-Jul-11 13:30N 29°34' W 090°43'0 0.0
2018-Jul-11 13:00N 29°34' W 090°43'0 0.0
2018-Jul-11 12:30N 29°34' W 090°43'0 0.0
2018-Jul-10 15:10N 29°34' W 090°43'0 0.0
2018-Jul-10 15:01N 29°34' W 090°43'0 0.0
2018-Jul-10 14:30N 29°34' W 090°43'0 0.0
2018-Jul-10 14:01N 29°34' W 090°43'0 0.0
2018-Jul-10 13:30N 29°34' W 090°43'0 0.0
2018-Jul-10 13:00N 29°34' W 090°43'  
Track history (hours):
 
Tides and Currents Weather Stations Pressure Air Temp Water Temp Dewpoint Dewpoint Depression Visibility Wind Speed Wind Dir Waves Ship Positions

Kolby

Owner: K&B Marine, Larose, LA. More information available from US FCC via Universal Licensing System and Coast Guard Vessel Documentation Center.

Last reported at 2018-Jul-20 00:07 UTC. Time now 2018-Jul-22 06:35 UTC.
Position N 29°34' W 090°43'.

Length 13 m.

Type: Tug. MMSI: 367392030.

Date/timePositionNaut miles runAvg speedWind from/ knotsBaromVisibWave heightAir tempDewpointWater temp
2018-Jul-20 00:07N 29°34' W 090°43'0 0.0
2018-Jul-20 00:01N 29°34' W 090°43'1 1.1
2018-Jul-19 23:30N 29°34' W 090°42'1 1.9
2018-Jul-19 23:01N 29°34' W 090°43'1 2.2
2018-Jul-19 22:30N 29°35' W 090°43'2 3.4
2018-Jul-19 22:00N 29°36' W 090°41'3 4.8
2018-Jul-19 21:23N 29°35' W 090°38'  
2018-Jul-17 11:54N 29°34' W 090°33'0 0.0
2018-Jul-17 09:12N 29°34' W 090°33'4 0.2
2018-Jul-16 10:29N 29°35' W 090°37'3 5.7
2018-Jul-16 10:00N 29°36' W 090°40'2 4.2
2018-Jul-16 09:29N 29°36' W 090°43'2 4.4
2018-Jul-16 09:00N 29°34' W 090°43'0 0.7
2018-Jul-16 08:30N 29°34' W 090°43'  
2018-Jul-14 01:31N 29°34' W 090°43'0 0.6
2018-Jul-14 01:30N 29°34' W 090°43'0 0.1
2018-Jul-14 01:00N 29°34' W 090°43'0 0.7
2018-Jul-14 00:27N 29°34' W 090°43'2 4.6
2018-Jul-14 00:00N 29°36' W 090°43'1 1.5
2018-Jul-13 23:30N 29°37' W 090°42'0 0.2
2018-Jul-13 23:00N 29°37' W 090°42'2 4.3
2018-Jul-13 22:29N 29°36' W 090°40'2 4.8
2018-Jul-13 22:00N 29°35' W 090°37'4 0.2
2018-Jul-12 20:47N 29°34' W 090°33'0 0.0
2018-Jul-12 20:16N 29°34' W 090°33'0 0.1
2018-Jul-12 20:00N 29°34' W 090°33'0 0.0
2018-Jul-12 19:29N 29°34' W 090°33'0 0.1
2018-Jul-12 18:57N 29°34' W 090°33'0 0.0
2018-Jul-12 16:56N 29°34' W 090°33'0 0.0
2018-Jul-12 16:28N 29°34' W 090°33'0 0.0
2018-Jul-12 15:59N 29°34' W 090°33'0 0.0
2018-Jul-12 15:30N 29°34' W 090°33'0 0.0
2018-Jul-12 15:00N 29°34' W 090°33'0 0.0
2018-Jul-12 14:29N 29°34' W 090°33'0 0.0
2018-Jul-12 14:00N 29°34' W 090°33'0 0.0
2018-Jul-12 13:30N 29°34' W 090°33'0 0.0
2018-Jul-12 13:00N 29°34' W 090°33'0 0.0
2018-Jul-12 12:29N 29°34' W 090°33'0 0.0
2018-Jul-12 12:00N 29°34' W 090°33'1 1.1
2018-Jul-12 11:16N 29°35' W 090°32'0 0.0
2018-Jul-12 08:44N 29°35' W 090°32'0 0.0
2018-Jul-12 08:24N 29°35' W 090°32'0 0.0
2018-Jul-12 07:55N 29°35' W 090°32'0 0.0
2018-Jul-12 07:30N 29°35' W 090°32'0 0.0
2018-Jul-12 07:00N 29°35' W 090°32'0 0.0
2018-Jul-12 06:30N 29°35' W 090°32'0 0.0
2018-Jul-12 06:00N 29°35' W 090°32'0 0.0
2018-Jul-12 05:30N 29°35' W 090°32'0 0.0
2018-Jul-12 04:36N 29°35' W 090°32'0 0.0
2018-Jul-12 04:28N 29°35' W 090°32'0 0.0
2018-Jul-12 04:00N 29°35' W 090°32'0 0.0
2018-Jul-12 03:09N 29°35' W 090°32'0 0.0
2018-Jul-12 02:44N 29°35' W 090°32'0 0.0
2018-Jul-12 02:22N 29°35' W 090°32'0 0.0
2018-Jul-12 01:48N 29°35' W 090°32'0 0.0
2018-Jul-11 23:01N 29°35' W 090°32'0 0.0
2018-Jul-11 23:00N 29°35' W 090°32'1 1.5
2018-Jul-11 22:30N 29°34' W 090°33'0 0.0
2018-Jul-11 22:00N 29°34' W 090°33'0 0.0
2018-Jul-11 21:30N 29°34' W 090°33'0 0.0
2018-Jul-11 21:00N 29°34' W 090°33'0 0.0
2018-Jul-11 20:30N 29°34' W 090°33'0 0.0
2018-Jul-11 19:59N 29°34' W 090°33'0 0.0
2018-Jul-11 19:30N 29°34' W 090°33'0 0.0
2018-Jul-11 19:00N 29°34' W 090°33'0 0.0
2018-Jul-11 18:30N 29°34' W 090°33'0 0.0
2018-Jul-11 18:00N 29°34' W 090°33'0 0.0
2018-Jul-11 17:28N 29°34' W 090°33'0 0.8
2018-Jul-11 17:00N 29°34' W 090°33'3 5.7
2018-Jul-11 16:30N 29°35' W 090°36'3 5.7
2018-Jul-11 16:00N 29°36' W 090°39'3 5.9
2018-Jul-11 15:30N 29°37' W 090°42'3 4.8
2018-Jul-11 14:59N 29°34' W 090°43'1 1.7
2018-Jul-11 14:30N 29°34' W 090°42'0 0.8
2018-Jul-11 14:00N 29°34' W 090°43'0 0.0
2018-Jul-11 13:30N 29°34' W 090°43'0 0.0
2018-Jul-11 13:00N 29°34' W 090°43'0 0.0
2018-Jul-11 12:30N 29°34' W 090°43'0 0.0
2018-Jul-10 15:10N 29°34' W 090°43'0 0.0
2018-Jul-10 15:01N 29°34' W 090°43'0 0.0
2018-Jul-10 14:30N 29°34' W 090°43'0 0.0
2018-Jul-10 14:01N 29°34' W 090°43'0 0.0
2018-Jul-10 13:30N 29°34' W 090°43'0 0.0
2018-Jul-10 13:00N 29°34' W 090°43'  

Dump ship's entire track history